createdAt,value
2023-02-09T00:02:17.118Z,1.02
2023-02-09T00:04:45.164Z,0.30
2023-02-09T00:07:13.116Z,0.50
2023-02-09T00:09:41.322Z,0.50
2023-02-09T00:12:27.802Z,0.60
2023-02-09T00:14:58.223Z,0.50
2023-02-09T00:17:28.816Z,0.40
2023-02-09T00:19:56.796Z,0.73
2023-02-09T00:22:24.805Z,0.55
2023-02-09T00:24:52.782Z,0.70
2023-02-09T00:27:20.854Z,0.82
2023-02-09T00:29:48.832Z,0.50
2023-02-09T00:32:16.809Z,0.60
2023-02-09T00:34:46.369Z,1.10
2023-02-09T00:37:14.471Z,0.40
2023-02-09T00:39:42.449Z,0.60
2023-02-09T00:42:11.815Z,0.60
2023-02-09T00:47:10.770Z,0.40
2023-02-09T00:49:40.055Z,0.52
2023-02-09T00:54:38.293Z,0.40
2023-02-09T00:57:06.306Z,0.55
2023-02-09T00:59:35.826Z,0.57
2023-02-09T01:02:04.601Z,0.50
2023-02-09T01:04:32.539Z,0.50
2023-02-09T01:07:00.514Z,0.60
2023-02-09T01:09:30.150Z,0.55
2023-02-09T01:11:58.061Z,0.50
2023-02-09T01:14:26.247Z,0.38
2023-02-09T01:16:54.298Z,0.22
2023-02-09T01:19:22.247Z,0.70
2023-02-09T01:21:50.487Z,1.20
2023-02-09T01:24:18.621Z,0.40
2023-02-09T01:26:47.936Z,0.40
2023-02-09T01:31:46.202Z,0.50
2023-02-09T01:34:18.569Z,0.35
2023-02-09T01:36:47.005Z,0.40
2023-02-09T01:39:15.663Z,0.47
2023-02-09T01:41:44.743Z,1.55
2023-02-09T01:45:06.660Z,0.70
2023-02-09T01:47:44.536Z,0.80
2023-02-09T01:50:14.824Z,0.45
2023-02-09T01:52:44.827Z,1.10
2023-02-09T01:55:19.055Z,0.85
2023-02-09T01:57:54.800Z,0.70
2023-02-09T02:00:25.750Z,0.82
2023-02-09T02:02:58.779Z,0.30
2023-02-09T02:05:29.739Z,0.50
2023-02-09T02:08:06.925Z,0.70
2023-02-09T02:10:35.301Z,0.40
2023-02-09T02:13:04.395Z,0.50
2023-02-09T02:16:00.370Z,0.52
2023-02-09T02:18:49.775Z,0.47
2023-02-09T02:21:56.212Z,0.55
2023-02-09T02:24:53.911Z,0.60
2023-02-09T02:27:34.963Z,0.55
2023-02-09T02:30:44.676Z,0.70
2023-02-09T02:33:34.560Z,0.40
2023-02-09T02:36:17.061Z,0.60
2023-02-09T02:38:58.298Z,0.40
2023-02-09T02:41:55.595Z,0.50
2023-02-09T02:44:28.757Z,0.57
2023-02-09T02:47:04.125Z,0.60
2023-02-09T02:49:43.670Z,0.52
2023-02-09T02:52:12.929Z,0.60
2023-02-09T02:54:48.832Z,0.38
2023-02-09T02:57:24.599Z,0.50
2023-02-09T03:00:00.051Z,0.52
2023-02-09T03:02:35.016Z,0.50
2023-02-09T03:05:06.541Z,0.50
2023-02-09T03:07:34.630Z,1.20
2023-02-09T03:10:03.419Z,0.60
2023-02-09T03:12:45.913Z,0.95
2023-02-09T03:15:31.910Z,0.40
2023-02-09T03:18:13.193Z,0.75
2023-02-09T03:20:53.433Z,0.80
2023-02-09T03:23:33.990Z,0.70
2023-02-09T03:26:10.553Z,0.60
2023-02-09T03:28:42.609Z,0.50
2023-02-09T03:31:11.523Z,0.40
2023-02-09T03:33:40.807Z,0.40
2023-02-09T03:36:16.521Z,0.65
2023-02-09T03:38:44.628Z,0.80
2023-02-09T03:41:12.984Z,0.55
2023-02-09T03:43:58.400Z,0.60
2023-02-09T03:46:26.442Z,0.60
2023-02-09T03:48:54.444Z,0.55
2023-02-09T03:51:23.809Z,0.77
2023-02-09T03:56:19.659Z,0.40
2023-02-09T03:58:47.602Z,0.50
2023-02-09T04:01:15.536Z,0.50
2023-02-09T04:03:43.684Z,0.40
2023-02-09T04:06:11.655Z,0.68
2023-02-09T04:08:43.016Z,0.75
2023-02-09T04:11:11.004Z,0.50
2023-02-09T04:13:38.969Z,2.78
2023-02-09T04:16:07.897Z,2.90
2023-02-09T04:18:35.754Z,2.88
2023-02-09T04:21:03.727Z,2.35
2023-02-09T04:23:31.641Z,2.45
2023-02-09T04:26:00.986Z,3.40
2023-02-09T04:30:58.141Z,2.92
2023-02-09T04:35:54.428Z,3.15
2023-02-09T04:38:23.431Z,2.13
2023-02-09T04:40:55.200Z,2.35
2023-02-09T04:43:24.675Z,4.43
2023-02-09T04:45:53.000Z,3.17
2023-02-09T04:48:24.902Z,2.70
2023-02-09T04:50:53.399Z,2.65
2023-02-09T04:53:22.696Z,3.60
2023-02-09T04:58:42.114Z,2.38
2023-02-09T05:01:15.877Z,3.03
2023-02-09T05:03:43.921Z,2.63
2023-02-09T05:06:11.960Z,3.22
2023-02-09T05:08:39.849Z,2.38
2023-02-09T05:11:08.084Z,2.42
2023-02-09T05:13:37.436Z,2.65
2023-02-09T05:18:35.758Z,3.15
2023-02-09T05:21:04.730Z,2.87
2023-02-09T05:23:32.840Z,3.03
2023-02-09T05:26:00.840Z,2.65
2023-02-09T05:28:28.954Z,2.60
2023-02-09T05:30:58.376Z,3.50
2023-02-09T05:33:27.174Z,3.35
2023-02-09T05:35:56.715Z,2.58
2023-02-09T05:38:25.489Z,2.58
2023-02-09T05:40:53.627Z,2.63
2023-02-09T05:43:21.707Z,3.08
2023-02-09T05:45:49.901Z,3.05
2023-02-09T05:48:19.310Z,2.85
2023-02-09T05:50:49.216Z,2.70
2023-02-09T05:53:17.240Z,2.42
2023-02-09T05:55:45.517Z,3.30
2023-02-09T05:58:13.602Z,2.88
2023-02-09T06:00:41.615Z,3.08
2023-02-09T06:03:09.557Z,2.35
2023-02-09T06:05:38.940Z,3.22
2023-02-09T06:08:06.880Z,3.45
2023-02-09T06:10:34.851Z,3.58
2023-02-09T06:13:02.846Z,2.17
2023-02-09T06:15:30.820Z,2.83
2023-02-09T06:17:58.847Z,2.90
2023-02-09T06:20:26.941Z,2.88
2023-02-09T06:22:56.297Z,2.72
2023-02-09T06:25:24.360Z,4.30
2023-02-09T06:27:52.307Z,2.35
2023-02-09T06:30:20.935Z,4.43
2023-02-09T06:32:48.882Z,3.47
2023-02-09T06:35:16.912Z,3.05
2023-02-09T06:37:44.825Z,3.22
2023-02-09T06:40:14.444Z,3.55
2023-02-09T06:42:44.986Z,2.55
2023-02-09T06:45:14.587Z,2.42
2023-02-09T06:47:42.886Z,5.05
2023-02-09T06:50:12.357Z,3.15
2023-02-09T06:52:40.552Z,3.20
2023-02-09T06:55:09.465Z,2.70
2023-02-09T06:57:39.089Z,2.85
2023-02-09T07:00:10.493Z,3.05
2023-02-09T07:02:38.554Z,3.25
2023-02-09T07:05:07.054Z,2.15
2023-02-09T07:07:36.077Z,2.25
2023-02-09T07:10:04.820Z,2.15
2023-02-09T07:12:33.318Z,3.15
2023-02-09T07:15:02.654Z,1.95
2023-02-09T07:19:59.356Z,2.20
2023-02-09T07:22:27.296Z,3.10
2023-02-09T07:24:55.334Z,2.70
2023-02-09T07:27:23.491Z,3.45
2023-02-09T07:29:51.722Z,4.57
2023-02-09T07:32:22.728Z,2.60
2023-02-09T07:34:50.672Z,2.88
2023-02-09T07:37:18.681Z,2.65
2023-02-09T07:39:46.744Z,2.67
2023-02-09T07:42:14.718Z,2.28
2023-02-09T07:44:42.658Z,2.60
2023-02-09T07:47:10.666Z,1.95
2023-02-09T07:49:40.048Z,2.85
2023-02-09T07:54:35.792Z,2.97
2023-02-09T07:57:03.821Z,3.33
2023-02-09T07:59:31.740Z,3.08
2023-02-09T08:01:59.896Z,2.25
2023-02-09T08:04:28.016Z,2.65
2023-02-09T08:06:57.628Z,2.65
2023-02-09T08:09:26.043Z,2.72
2023-02-09T08:12:02.009Z,2.20
2023-02-09T08:14:39.689Z,2.40
2023-02-09T08:17:24.236Z,2.80
2023-02-09T08:20:00.020Z,2.97
2023-02-09T08:22:34.507Z,2.38
2023-02-09T08:25:05.784Z,2.28
2023-02-09T08:27:36.270Z,2.90
2023-02-09T08:30:05.583Z,4.95
2023-02-09T08:35:01.354Z,2.47
2023-02-09T08:37:30.640Z,2.83
2023-02-09T08:39:58.957Z,2.53
2023-02-09T08:42:26.932Z,2.35
2023-02-09T08:44:54.869Z,2.53
2023-02-09T08:47:22.886Z,2.58
2023-02-09T08:49:51.722Z,2.30
2023-02-09T08:52:19.866Z,1.60
2023-02-09T08:54:49.174Z,1.80
2023-02-09T08:57:17.238Z,2.15
2023-02-09T08:59:45.286Z,2.42
2023-02-09T09:02:13.259Z,2.65
2023-02-09T09:04:41.137Z,2.10
2023-02-09T09:07:09.123Z,2.17
2023-02-09T09:09:37.885Z,2.17
2023-02-09T09:12:07.467Z,2.08
2023-02-09T09:17:03.366Z,2.20
2023-02-09T09:19:31.308Z,1.45
2023-02-09T09:22:00.334Z,2.10
2023-02-09T09:24:29.147Z,1.42
2023-02-09T09:26:57.553Z,1.35
2023-02-09T09:29:26.872Z,1.85
2023-02-09T09:31:55.040Z,1.85
2023-02-09T09:34:23.022Z,1.48
2023-02-09T09:36:50.894Z,1.73
2023-02-09T09:39:19.199Z,1.90
2023-02-09T09:41:49.172Z,1.38
2023-02-09T09:44:29.826Z,2.38
2023-02-09T09:47:01.289Z,1.73
2023-02-09T09:49:32.820Z,1.77
2023-02-09T09:52:07.802Z,1.75
2023-02-09T09:54:38.237Z,1.85
2023-02-09T09:57:21.316Z,1.83
2023-02-09T09:59:50.829Z,2.15
2023-02-09T10:04:51.860Z,2.83
2023-02-09T10:07:23.845Z,1.38
2023-02-09T10:10:00.047Z,1.35
2023-02-09T10:12:38.486Z,1.15
2023-02-09T10:15:28.808Z,1.27
2023-02-09T10:17:57.964Z,1.58
2023-02-09T10:20:49.495Z,2.33
2023-02-09T10:23:25.595Z,1.20
2023-02-09T10:26:00.682Z,1.33
2023-02-09T10:28:32.399Z,1.17
2023-02-09T10:31:11.216Z,1.48
2023-02-09T10:33:45.641Z,1.90
2023-02-09T10:36:33.780Z,1.10
2023-02-09T10:39:18.075Z,1.77
2023-02-09T10:41:49.211Z,1.27
2023-02-09T10:44:23.446Z,1.10
2023-02-09T10:47:11.756Z,1.05
2023-02-09T10:49:40.896Z,1.05
2023-02-09T10:52:17.766Z,1.00
2023-02-09T10:54:50.744Z,1.10
2023-02-09T10:57:26.207Z,2.08
2023-02-09T10:59:57.748Z,1.02
2023-02-09T11:02:40.269Z,1.20
2023-02-09T11:05:32.884Z,1.00
2023-02-09T11:08:16.793Z,1.20
2023-02-09T11:10:59.948Z,1.13
2023-02-09T11:13:29.621Z,0.75
2023-02-09T11:16:52.140Z,1.10
2023-02-09T11:19:50.591Z,0.90
2023-02-09T11:22:29.292Z,1.38
2023-02-09T11:25:07.877Z,0.60
2023-02-09T11:28:19.996Z,1.20
2023-02-09T11:31:22.084Z,1.13
2023-02-09T11:34:05.641Z,1.10
2023-02-09T11:36:50.109Z,1.95
2023-02-09T11:39:28.520Z,1.00
2023-02-09T11:42:23.753Z,0.95
2023-02-09T11:45:00.688Z,0.70
2023-02-09T11:47:42.210Z,1.10
2023-02-09T11:50:21.036Z,0.85
2023-02-09T11:52:57.856Z,1.45
2023-02-09T11:55:35.429Z,0.70
2023-02-09T11:58:30.506Z,1.20
2023-02-09T12:01:15.499Z,1.20
2023-02-09T12:04:00.149Z,0.80
2023-02-09T12:06:37.711Z,0.95
2023-02-09T12:09:25.993Z,0.95
2023-02-09T12:12:09.114Z,1.13
2023-02-09T12:14:55.123Z,0.57
2023-02-09T12:17:37.343Z,0.50
2023-02-09T12:20:20.921Z,0.80
2023-02-09T12:23:02.507Z,1.23
2023-02-09T12:25:59.566Z,1.20
2023-02-09T12:28:45.362Z,2.72
2023-02-09T12:31:26.082Z,0.80
2023-02-09T12:34:31.448Z,2.17
2023-02-09T12:37:28.013Z,1.00
2023-02-09T12:40:23.810Z,0.98
2023-02-09T12:43:31.648Z,1.05
2023-02-09T12:46:27.541Z,0.88
2023-02-09T12:49:11.384Z,1.10
2023-02-09T12:52:13.206Z,1.00
2023-02-09T12:54:47.370Z,0.98
2023-02-09T12:57:58.057Z,0.80
2023-02-09T13:00:57.529Z,1.17
2023-02-09T13:06:02.769Z,0.70
2023-02-09T13:08:46.603Z,2.67
2023-02-09T13:11:27.590Z,1.30
2023-02-09T13:13:59.515Z,0.68
2023-02-09T13:17:29.449Z,1.00
2023-02-09T13:20:24.398Z,0.85
2023-02-09T13:23:10.967Z,1.10
2023-02-09T13:25:41.614Z,0.95
2023-02-09T13:28:16.828Z,0.80
2023-02-09T13:30:46.875Z,0.80
2023-02-09T13:33:45.240Z,0.82
2023-02-09T13:36:31.759Z,1.38
2023-02-09T13:38:59.798Z,0.95
2023-02-09T13:41:37.282Z,1.33
2023-02-09T13:44:19.446Z,1.02
2023-02-09T13:46:53.691Z,1.15
2023-02-09T13:49:24.582Z,1.10
2023-02-09T13:52:17.102Z,1.15
2023-02-09T13:54:45.332Z,0.90
2023-02-09T13:57:34.801Z,1.20
2023-02-09T14:00:17.697Z,1.25
2023-02-09T14:02:51.097Z,1.20
2023-02-09T14:05:38.843Z,0.75
2023-02-09T14:08:07.868Z,2.17
2023-02-09T14:10:36.502Z,0.80
2023-02-09T14:13:07.953Z,1.02
2023-02-09T14:16:15.766Z,0.70
2023-02-09T14:18:48.745Z,0.80
2023-02-09T14:21:25.168Z,0.77
2023-02-09T14:24:20.173Z,0.70
2023-02-09T14:26:53.252Z,1.00
2023-02-09T14:29:27.088Z,1.23
2023-02-09T14:31:58.059Z,2.17
2023-02-09T14:34:36.381Z,0.90
2023-02-09T14:37:31.606Z,0.88
2023-02-09T14:40:04.474Z,0.63
2023-02-09T14:42:34.451Z,0.77
2023-02-09T14:45:28.861Z,0.80
2023-02-09T14:47:58.185Z,1.23
2023-02-09T14:50:26.130Z,1.00
2023-02-09T14:53:06.201Z,1.30
2023-02-09T14:55:40.270Z,0.93
2023-02-09T14:58:26.674Z,0.70
2023-02-09T15:01:01.038Z,1.00
2023-02-09T15:03:30.769Z,1.00
2023-02-09T15:06:03.323Z,1.00
2023-02-09T15:08:36.502Z,0.85
2023-02-09T15:11:28.231Z,0.70
2023-02-09T15:14:03.736Z,1.20
2023-02-09T15:16:32.412Z,0.80
2023-02-09T15:19:04.760Z,1.27
2023-02-09T15:21:33.086Z,0.93
2023-02-09T15:24:01.205Z,1.13
2023-02-09T15:26:37.859Z,0.70
2023-02-09T15:29:13.323Z,1.23
2023-02-09T15:31:41.634Z,1.00
2023-02-09T15:34:13.554Z,0.75
2023-02-09T15:36:42.635Z,0.88
2023-02-09T15:39:19.625Z,0.82
2023-02-09T15:42:05.226Z,1.10
2023-02-09T15:44:50.566Z,1.23
2023-02-09T15:47:35.866Z,1.13
2023-02-09T15:50:05.590Z,1.23
2023-02-09T15:52:33.748Z,1.10
2023-02-09T15:55:02.693Z,2.38
2023-02-09T15:57:31.101Z,2.85
2023-02-09T15:59:59.084Z,2.40
2023-02-09T16:02:27.121Z,1.08
2023-02-09T16:04:55.010Z,1.20
2023-02-09T16:07:27.417Z,1.20
2023-02-09T16:09:55.393Z,1.23
2023-02-09T16:12:23.367Z,1.50
2023-02-09T16:14:53.256Z,1.25
2023-02-09T16:17:21.494Z,1.10
2023-02-09T16:19:49.447Z,1.10
2023-02-09T16:22:19.651Z,1.42
2023-02-09T16:24:49.316Z,1.35
2023-02-09T16:27:24.921Z,2.17
2023-02-09T16:29:52.923Z,1.25
2023-02-09T16:32:23.574Z,1.80
2023-02-09T16:34:52.527Z,1.05
2023-02-09T16:37:29.721Z,1.05
2023-02-09T16:40:01.086Z,1.17
2023-02-09T16:42:30.321Z,1.35
2023-02-09T16:44:58.518Z,1.42
2023-02-09T16:47:29.331Z,1.25
2023-02-09T16:50:00.961Z,1.20
2023-02-09T16:52:30.220Z,1.55
2023-02-09T16:55:02.513Z,1.00
2023-02-09T16:57:30.565Z,2.85
2023-02-09T16:59:58.529Z,0.93
2023-02-09T17:02:39.578Z,0.60
2023-02-09T17:05:19.089Z,1.00
2023-02-09T17:10:29.415Z,0.65
2023-02-09T17:13:01.791Z,1.00
2023-02-09T17:15:40.630Z,0.80
2023-02-09T17:18:15.916Z,1.08
2023-02-09T17:20:47.283Z,0.75
2023-02-09T17:23:19.232Z,1.50
2023-02-09T17:25:50.725Z,1.45
2023-02-09T17:28:19.359Z,1.08
2023-02-09T17:30:49.508Z,1.48
2023-02-09T17:33:24.588Z,1.02
2023-02-09T17:36:23.808Z,1.40
2023-02-09T17:38:42.000Z,0.73
2023-02-09T17:41:16.842Z,1.60
2023-02-09T17:43:45.159Z,1.45
2023-02-09T17:46:14.737Z,1.73
2023-02-09T17:48:43.214Z,0.95
2023-02-09T17:51:21.188Z,1.35
2023-02-09T17:53:52.081Z,1.35
2023-02-09T17:56:23.935Z,1.17
2023-02-09T17:58:54.939Z,1.40
2023-02-09T18:01:28.413Z,1.30
2023-02-09T18:04:02.589Z,1.38
2023-02-09T18:06:38.929Z,0.90
2023-02-09T18:09:11.744Z,1.70
2023-02-09T18:12:03.458Z,0.93
2023-02-09T18:14:37.309Z,1.10
2023-02-09T18:17:05.653Z,1.67
2023-02-09T18:19:33.916Z,0.63
2023-02-09T18:22:03.048Z,1.38
2023-02-09T18:24:34.102Z,1.40
2023-02-09T18:27:03.542Z,1.10
2023-02-09T18:32:01.795Z,1.20
2023-02-09T18:34:30.939Z,1.40
2023-02-09T18:36:58.834Z,1.30
2023-02-09T18:39:26.819Z,3.38
2023-02-09T18:41:55.379Z,0.90
2023-02-09T18:44:29.154Z,1.00
2023-02-09T18:46:57.994Z,1.23
2023-02-09T18:49:26.264Z,1.63
2023-02-09T18:51:54.259Z,0.98
2023-02-09T18:54:22.265Z,1.00
2023-02-09T18:56:50.224Z,1.80
2023-02-09T18:59:18.310Z,1.25
2023-02-09T19:01:47.542Z,0.88
2023-02-09T19:04:15.523Z,1.30
2023-02-09T19:06:43.422Z,1.20
2023-02-09T19:09:11.399Z,1.52
2023-02-09T19:11:39.357Z,2.17
2023-02-09T19:14:23.918Z,1.15
2023-02-09T19:16:53.254Z,1.08
2023-02-09T19:19:21.662Z,1.35
2023-02-09T19:21:51.974Z,1.35
2023-02-09T19:24:20.269Z,1.02
2023-02-09T19:26:48.351Z,1.77
2023-02-09T19:29:16.597Z,2.45
2023-02-09T19:31:46.331Z,1.73
2023-02-09T19:34:15.707Z,1.80
2023-02-09T19:36:43.769Z,1.90
2023-02-09T19:39:12.637Z,1.35
2023-02-09T19:41:40.733Z,1.58
2023-02-09T19:44:08.703Z,1.25
2023-02-09T19:46:36.753Z,1.80
2023-02-09T19:49:04.850Z,2.65
2023-02-09T19:51:34.180Z,1.83
2023-02-09T19:54:02.184Z,3.08
2023-02-09T19:56:30.226Z,3.13
2023-02-09T19:58:58.394Z,2.80
2023-02-09T20:01:27.442Z,2.28
2023-02-09T20:03:55.468Z,2.40
2023-02-09T20:06:23.547Z,3.88
2023-02-09T20:08:53.170Z,3.85
2023-02-09T20:11:22.340Z,1.48
2023-02-09T20:13:52.657Z,3.28
2023-02-09T20:16:24.493Z,1.67
2023-02-09T20:18:53.864Z,1.30
2023-02-09T20:21:24.848Z,1.90
2023-02-09T20:23:56.823Z,1.40
2023-02-09T20:26:29.122Z,1.27
2023-02-09T20:28:58.280Z,1.77
2023-02-09T20:31:30.163Z,1.30
2023-02-09T20:33:58.462Z,1.25
2023-02-09T20:36:26.753Z,1.52
2023-02-09T20:38:57.253Z,2.03
2023-02-09T20:41:25.222Z,2.38
2023-02-09T20:44:10.631Z,1.33
2023-02-09T20:46:55.119Z,1.58
2023-02-09T20:49:29.396Z,1.38
2023-02-09T20:51:57.611Z,1.48
2023-02-09T20:54:27.238Z,1.80
2023-02-09T20:56:55.214Z,1.60
2023-02-09T20:59:23.193Z,2.17
2023-02-09T21:01:52.263Z,1.88
2023-02-09T21:04:20.673Z,1.63
2023-02-09T21:06:48.634Z,1.80
2023-02-09T21:09:17.207Z,1.75
2023-02-09T21:11:46.572Z,1.87
2023-02-09T21:14:22.109Z,2.00
2023-02-09T21:17:00.763Z,2.28
2023-02-09T21:19:28.855Z,2.28
2023-02-09T21:21:57.008Z,1.65
2023-02-09T21:24:25.139Z,1.38
2023-02-09T21:26:55.005Z,2.10
2023-02-09T21:29:23.223Z,1.60
2023-02-09T21:31:52.068Z,2.22
2023-02-09T21:34:20.239Z,1.45
2023-02-09T21:36:48.631Z,1.98
2023-02-09T21:39:16.594Z,1.73
2023-02-09T21:42:02.008Z,1.60
2023-02-09T21:44:31.482Z,1.95
2023-02-09T21:49:31.452Z,2.05
2023-02-09T21:51:59.809Z,1.77
2023-02-09T21:54:33.084Z,1.98
2023-02-09T21:57:02.074Z,1.70
2023-02-09T21:59:31.503Z,1.88
2023-02-09T22:01:59.518Z,1.77
2023-02-09T22:04:27.688Z,1.27
2023-02-09T22:06:55.722Z,1.95
2023-02-09T22:09:24.990Z,1.73
2023-02-09T22:11:53.032Z,1.70
2023-02-09T22:14:20.968Z,1.80
2023-02-09T22:16:50.304Z,1.52
2023-02-09T22:19:18.239Z,1.38
2023-02-09T22:21:46.234Z,1.65
2023-02-09T22:24:16.602Z,2.33
2023-02-09T22:26:45.166Z,1.85
2023-02-09T22:29:15.579Z,1.45
2023-02-09T22:31:44.977Z,1.20
2023-02-09T22:34:14.589Z,1.73
2023-02-09T22:39:10.994Z,1.00
2023-02-09T22:41:39.278Z,1.42
2023-02-09T22:44:11.446Z,1.55
2023-02-09T22:46:42.456Z,1.55
2023-02-09T22:49:20.060Z,1.67
2023-02-09T22:51:50.701Z,1.67
2023-02-09T22:54:21.350Z,1.08
2023-02-09T22:56:49.601Z,1.85
2023-02-09T22:59:17.527Z,1.27
2023-02-09T23:01:46.533Z,1.10
2023-02-09T23:04:14.786Z,1.40
2023-02-09T23:06:44.151Z,1.88
2023-02-09T23:09:14.726Z,2.13
2023-02-09T23:11:44.335Z,1.92
2023-02-09T23:14:12.558Z,1.45
2023-02-09T23:16:42.934Z,1.80
2023-02-09T23:19:16.156Z,1.58
2023-02-09T23:21:48.656Z,2.22
2023-02-09T23:24:21.273Z,1.83
2023-02-09T23:26:49.936Z,1.63
2023-02-09T23:29:19.394Z,1.63
2023-02-09T23:31:48.626Z,1.45
2023-02-09T23:34:20.921Z,1.10
2023-02-09T23:36:50.749Z,1.73
2023-02-09T23:39:23.056Z,1.75
2023-02-09T23:41:51.093Z,1.30
2023-02-09T23:44:19.454Z,1.98
2023-02-09T23:46:47.567Z,1.13
2023-02-09T23:49:15.487Z,1.80
2023-02-09T23:51:46.547Z,1.42
2023-02-09T23:54:15.919Z,1.48
2023-02-09T23:56:46.204Z,2.00
2023-02-09T23:59:16.139Z,1.60
